Time;durP1;ratioP1;P1;durP2;ratioP2;P2;SDS_P1;SDS_P2;PMS_P1;PMS_P2;Temp;Humidity;BMP_temperature;BMP_pressure;BME280_temperature;BME280_humidity;BME280_pressure;Samples;Min_cycle;Max_cycle;Signal;HPM_P1;HPM_P2
2021/04/11 00:01:10;;;;;;;58.63;32.80;;;;;;;10.09;52.80;100231.94;3593202;39;20387;-71
2021/04/11 00:03:37;;;;;;;63.42;33.92;;;;;;;10.02;52.86;100228.69;3591363;40;20036;-72
2021/04/11 00:06:03;;;;;;;69.78;36.78;;;;;;;9.98;52.92;100221.84;3591958;40;20313;-72
2021/04/11 00:08:29;;;;;;;76.05;40.80;;;;;;;9.92;53.34;100227.28;3589800;40;20040;-71
2021/04/11 00:10:58;;;;;;;89.88;46.08;;;;;;;9.91;53.36;100224.75;3593316;39;20052;-71
2021/04/11 00:13:27;;;;;;;82.70;43.75;;;;;;;9.88;53.44;100225.72;3591618;40;20032;-72
2021/04/11 00:15:53;;;;;;;91.43;45.80;;;;;;;9.86;53.21;100222.28;3597914;39;20146;-72
2021/04/11 00:18:22;;;;;;;84.53;45.70;;;;;;;9.80;53.50;100219.06;3597606;39;20043;-71
2021/04/11 00:20:50;;;;;;;89.15;46.60;;;;;;;9.78;53.87;100222.53;3597062;40;20060;-71
2021/04/11 00:23:18;;;;;;;90.25;46.72;;;;;;;9.76;53.73;100218.28;3597953;39;20111;-71
2021/04/11 00:25:47;;;;;;;115.72;56.25;;;;;;;9.71;53.88;100220.22;3598316;39;20064;-71
2021/04/11 00:28:15;;;;;;;109.13;52.40;;;;;;;9.65;54.34;100220.44;3598503;39;20036;-71
2021/04/11 00:30:43;;;;;;;115.38;54.60;;;;;;;9.58;54.28;100222.41;3598197;39;20072;-71
2021/04/11 00:33:19;;;;;;;101.28;49.75;;;;;;;9.54;54.42;100225.16;3597907;39;20486;-72
2021/04/11 00:35:45;;;;;;;105.35;50.60;;;;;;;9.48;54.60;100228.84;3597847;39;20028;-71
2021/04/11 00:38:13;;;;;;;99.45;50.80;;;;;;;9.46;54.78;100226.28;3597552;40;20073;-71
2021/04/11 00:40:39;;;;;;;103.65;51.40;;;;;;;9.44;54.94;100232.50;3598074;39;20309;-70
2021/04/11 00:43:08;;;;;;;97.78;51.35;;;;;;;9.44;54.95;100235.97;3598262;39;20064;-71
2021/04/11 00:45:39;;;;;;;98.43;50.10;;;;;;;9.44;54.88;100237.72;3596882;39;20068;-71
2021/04/11 00:48:07;;;;;;;95.18;49.67;;;;;;;9.46;54.98;100230.69;3597712;39;20034;-75
2021/04/11 00:50:34;;;;;;;95.95;48.75;;;;;;;9.47;54.93;100230.63;3597607;39;20108;-71
2021/04/11 00:53:17;;;;;;;99.53;50.28;;;;;;;9.48;54.89;100234.94;3596706;40;20321;-71
2021/04/11 00:55:43;;;;;;;98.00;50.10;;;;;;;9.48;55.03;100229.72;3597935;39;20044;-71
2021/04/11 00:58:09;;;;;;;101.70;51.17;;;;;;;9.51;54.83;100227.91;3597738;39;20360;-71
2021/04/11 01:00:37;;;;;;;96.65;52.10;;;;;;;9.53;54.84;100226.06;3597204;39;20048;-71
2021/04/11 01:03:03;;;;;;;97.13;49.63;;;;;;;9.54;55.14;100230.41;3597561;39;20064;-71
2021/04/11 01:05:33;;;;;;;92.10;49.38;;;;;;;9.52;55.11;100224.38;3597555;40;20056;-71
2021/04/11 01:08:04;;;;;;;95.43;46.25;;;;;;;9.52;55.11;100222.59;3597614;39;20310;-71
2021/04/11 01:10:35;;;;;;;93.22;49.85;;;;;;;9.50;55.25;100220.97;3589953;39;20032;-71
2021/04/11 01:13:02;;;;;;;97.95;47.53;;;;;;;9.51;55.08;100222.66;3589041;40;20292;-71
2021/04/11 01:15:31;;;;;;;87.40;48.97;;;;;;;9.48;55.42;100219.25;3594336;40;20040;-70
2021/04/11 01:17:57;;;;;;;84.93;46.97;;;;;;;9.47;55.14;100222.78;3594579;39;20070;-71
2021/04/11 01:20:25;;;;;;;93.82;48.75;;;;;;;9.45;55.51;100219.34;3594749;39;20068;-71
2021/04/11 01:23:05;;;;;;;93.05;49.05;;;;;;;9.43;55.54;100218.56;3596772;40;20046;-71
2021/04/11 01:25:35;;;;;;;98.07;46.25;;;;;;;9.44;55.41;100219.41;3597451;39;20036;-72
2021/04/11 01:28:05;;;;;;;99.30;48.80;;;;;;;9.41;55.43;100212.53;3595985;39;20073;-71
2021/04/11 01:30:36;;;;;;;82.55;44.88;;;;;;;9.37;55.54;100218.78;3597194;40;20309;-71
2021/04/11 01:33:05;;;;;;;72.82;50.72;;;;;;;9.36;55.44;100214.41;3597221;39;20032;-71
2021/04/11 01:35:31;;;;;;;79.70;44.60;;;;;;;9.38;55.67;100214.41;3597869;39;20064;-71
2021/04/11 01:37:59;;;;;;;80.43;43.80;;;;;;;9.37;55.71;100208.31;3597416;39;20193;-72
2021/04/11 01:40:33;;;;;;;86.43;44.45;;;;;;;9.35;55.75;100197.00;3597291;39;20150;-71
2021/04/11 01:43:02;;;;;;;87.90;44.50;;;;;;;9.34;55.81;100200.53;3596608;40;20032;-72
2021/04/11 01:45:30;;;;;;;81.05;42.25;;;;;;;9.31;56.12;100197.19;3597455;40;20142;-72
2021/04/11 01:47:57;;;;;;;83.15;42.85;;;;;;;9.27;56.14;100201.66;3597734;39;20036;-71
2021/04/11 01:50:23;;;;;;;85.75;42.53;;;;;;;9.25;56.14;100200.00;3597926;39;20138;-71
2021/04/11 01:52:50;;;;;;;85.57;45.08;;;;;;;9.18;56.36;100188.91;3597774;39;20076;-71
2021/04/11 01:55:17;;;;;;;91.03;44.92;;;;;;;9.13;56.55;100191.66;3597702;39;20032;-71
2021/04/11 01:57:43;;;;;;;93.68;46.03;;;;;;;9.11;56.64;100195.22;3597643;39;20079;-71
2021/04/11 02:00:20;;;;;;;84.22;44.22;;;;;;;9.04;56.63;100191.13;3592837;40;20041;-72
2021/04/11 02:02:46;;;;;;;93.93;47.35;;;;;;;9.06;56.59;100189.31;3596054;40;20048;-71
2021/04/11 02:05:16;;;;;;;91.72;45.88;;;;;;;9.01;56.80;100186.00;3596493;39;20051;-70
2021/04/11 02:07:44;;;;;;;86.22;46.38;;;;;;;8.99;56.78;100190.41;3596885;39;20293;-71
2021/04/11 02:10:12;;;;;;;85.97;46.60;;;;;;;8.95;56.58;100192.25;3597010;39;20035;-71
2021/04/11 02:12:38;;;;;;;89.82;45.60;;;;;;;8.93;56.57;100193.22;3597085;39;20391;-70
2021/04/11 02:15:09;;;;;;;77.63;41.92;;;;;;;8.88;57.07;100189.91;3596375;39;20042;-71
2021/04/11 02:17:38;;;;;;;79.03;42.53;;;;;;;8.86;57.26;100192.56;3597563;39;20150;-70
2021/04/11 02:20:07;;;;;;;74.00;41.08;;;;;;;8.89;57.01;100191.59;3597055;39;20125;-70
2021/04/11 02:22:34;;;;;;;78.20;43.92;;;;;;;8.90;56.83;100183.72;3595864;39;20138;-70
2021/04/11 02:25:01;;;;;;;81.47;41.67;;;;;;;8.89;56.93;100184.63;3595193;39;20039;-70
2021/04/11 02:27:28;;;;;;;76.82;40.63;;;;;;;8.83;57.08;100182.22;3594385;39;20294;-70
2021/04/11 02:29:55;;;;;;;80.50;41.08;;;;;;;8.79;57.22;100181.47;3594867;39;20048;-70
2021/04/11 02:32:21;;;;;;;78.70;41.55;;;;;;;8.84;56.96;100169.09;3590462;39;20029;-70
2021/04/11 02:34:48;;;;;;;76.40;41.58;;;;;;;8.89;57.11;100175.91;3589566;40;20037;-71
2021/04/11 02:37:22;;;;;;;78.65;41.25;;;;;;;8.86;57.23;100180.34;3589192;40;20069;-71
2021/04/11 02:39:50;;;;;;;75.25;41.65;;;;;;;8.89;56.85;100175.91;3589556;40;20084;-70
2021/04/11 02:42:19;;;;;;;74.05;40.80;;;;;;;8.93;56.96;100180.13;3589117;40;20039;-71
2021/04/11 02:44:48;;;;;;;67.57;40.03;;;;;;;8.98;57.07;100186.94;3589126;40;20064;-70
2021/04/11 02:47:16;;;;;;;80.63;39.20;;;;;;;9.00;56.81;100184.28;3589505;40;20129;-71
2021/04/11 02:49:43;;;;;;;70.90;38.80;;;;;;;9.00;56.92;100179.91;3588835;40;20037;-72
2021/04/11 02:52:21;;;;;;;76.32;39.33;;;;;;;8.98;57.22;100192.19;3588075;40;20076;-72
2021/04/11 02:54:48;;;;;;;70.45;40.60;;;;;;;8.96;57.32;100193.13;3588354;40;20032;-71
2021/04/11 02:57:14;;;;;;;67.68;38.40;;;;;;;8.91;57.51;100195.03;3589148;40;20041;-71
2021/04/11 02:59:41;;;;;;;72.50;38.33;;;;;;;8.83;57.71;100188.28;3588190;40;20038;-71
2021/04/11 03:02:08;;;;;;;67.85;39.20;;;;;;;8.83;57.59;100188.28;3589415;40;20029;-72
2021/04/11 03:04:34;;;;;;;70.57;36.45;;;;;;;8.80;57.56;100192.78;3589141;40;20042;-71
2021/04/11 03:07:07;;;;;;;70.15;38.53;;;;;;;8.69;57.73;100187.88;3589000;40;20045;-71
2021/04/11 03:09:37;;;;;;;69.88;37.05;;;;;;;8.58;58.10;100176.91;3589885;40;20044;-71
2021/04/11 03:12:05;;;;;;;75.20;40.75;;;;;;;8.56;58.09;100183.94;3588982;40;20040;-72
2021/04/11 03:14:35;;;;;;;73.85;39.63;;;;;;;8.47;58.23;100186.81;3589836;40;20414;-71
2021/04/11 03:17:04;;;;;;;78.68;41.88;;;;;;;8.41;58.35;100187.03;3588890;40;20123;-71
2021/04/11 03:19:37;;;;;;;75.20;37.30;;;;;;;8.33;58.48;100195.06;3588925;40;20033;-71
2021/04/11 03:22:04;;;;;;;77.88;40.65;;;;;;;8.27;58.67;100187.41;3588180;40;20035;-71
2021/04/11 03:24:30;;;;;;;72.35;39.67;;;;;;;8.20;58.69;100185.88;3590206;40;20045;-71
2021/04/11 03:27:06;;;;;;;67.60;38.78;;;;;;;8.13;58.79;100189.56;3588998;40;20032;-71
2021/04/11 03:29:38;;;;;;;75.85;39.00;;;;;;;8.06;58.83;100198.47;3589266;40;20037;-70
2021/04/11 03:32:10;;;;;;;66.55;37.53;;;;;;;7.93;59.40;100196.22;3588860;40;20069;-71
2021/04/11 03:34:40;;;;;;;72.95;37.78;;;;;;;7.82;59.60;100185.22;3587850;40;20431;-70
2021/04/11 03:37:09;;;;;;;70.32;38.67;;;;;;;7.76;59.51;100205.41;3588279;40;20040;-71
2021/04/11 03:39:35;;;;;;;67.47;37.15;;;;;;;7.68;59.71;100202.16;3587410;40;20045;-71
2021/04/11 03:42:05;;;;;;;72.53;38.90;;;;;;;7.59;59.83;100206.72;3589548;40;20072;-70
2021/04/11 03:44:32;;;;;;;80.47;43.72;;;;;;;7.54;60.17;100208.63;3589766;40;20064;-71
2021/04/11 03:47:03;;;;;;;74.63;42.92;;;;;;;7.46;60.45;100209.69;3589303;40;20060;-72
2021/04/11 03:49:38;;;;;;;77.03;38.13;;;;;;;7.41;60.50;100209.81;3589645;40;20041;-71
2021/04/11 03:52:09;;;;;;;70.93;37.75;;;;;;;7.37;60.62;100213.41;3588707;40;20037;-71
2021/04/11 03:54:38;;;;;;;73.68;39.65;;;;;;;7.34;60.64;100221.31;3589745;40;20043;-72
2021/04/11 03:57:15;;;;;;;71.82;39.97;;;;;;;7.27;60.94;100222.34;3588841;40;20039;-71
2021/04/11 03:59:46;;;;;;;74.38;38.33;;;;;;;7.23;60.83;100216.34;3590787;40;20060;-72
2021/04/11 04:02:15;;;;;;;73.82;42.03;;;;;;;7.22;61.00;100217.25;3589065;40;20072;-70
2021/04/11 04:04:43;;;;;;;82.15;41.63;;;;;;;7.20;61.09;100216.44;3595161;40;20044;-70
2021/04/11 04:07:14;;;;;;;77.03;42.10;;;;;;;7.20;61.44;100226.00;3597977;40;20035;-70
2021/04/11 04:09:42;;;;;;;71.28;38.72;;;;;;;7.22;61.37;100219.00;3597812;39;20121;-71
2021/04/11 04:12:24;;;;;;;74.90;37.70;;;;;;;7.20;61.33;100226.00;3599118;39;20065;-71
2021/04/11 04:15:00;;;;;;;70.57;38.67;;;;;;;7.20;61.49;100226.88;3599066;39;20181;-70
2021/04/11 04:17:37;;;;;;;68.43;38.10;;;;;;;7.21;61.63;100227.72;3599141;39;20043;-71
2021/04/11 04:20:11;;;;;;;69.18;39.15;;;;;;;7.23;61.55;100231.16;3599008;39;20433;-70
2021/04/11 04:22:50;;;;;;;69.68;37.95;;;;;;;7.27;61.50;100230.16;3598210;40;20047;-71
2021/04/11 04:25:31;;;;;;;66.85;36.60;;;;;;;7.37;61.58;100236.88;3598965;40;20067;-71
2021/04/11 04:28:11;;;;;;;68.90;36.88;;;;;;;7.52;60.90;100239.09;3598693;40;20032;-71
2021/04/11 04:30:53;;;;;;;64.30;36.30;;;;;;;7.70;60.47;100240.34;3599333;39;20040;-71
2021/04/11 04:33:27;;;;;;;68.00;37.35;;;;;;;7.82;60.49;100233.94;3599223;39;20036;-71
2021/04/11 04:36:03;;;;;;;65.25;34.92;;;;;;;7.89;60.31;100230.25;3596470;39;20044;-71
2021/04/11 04:38:35;;;;;;;62.72;35.13;;;;;;;7.95;60.32;100230.97;3599266;39;20365;-71
2021/04/11 04:41:12;;;;;;;67.65;37.10;;;;;;;7.95;60.19;100230.13;3598662;39;20040;-70
2021/04/11 04:43:52;;;;;;;55.75;35.33;;;;;;;7.93;60.31;100224.94;3599110;39;20405;-71
2021/04/11 04:46:29;;;;;;;63.80;34.85;;;;;;;8.01;60.31;100227.31;3598635;39;20035;-70
2021/04/11 04:49:03;;;;;;;65.07;33.85;;;;;;;8.05;60.25;100228.94;3597202;40;20086;-71
2021/04/11 04:51:39;;;;;;;51.17;31.58;;;;;;;8.06;60.31;100230.66;3598648;39;20342;-70
2021/04/11 04:54:13;;;;;;;58.08;32.85;;;;;;;8.09;60.32;100233.16;3599164;39;20069;-70
2021/04/11 04:56:45;;;;;;;58.95;33.45;;;;;;;8.22;59.98;100234.53;3598471;40;20035;-70
2021/04/11 04:59:19;;;;;;;60.65;35.33;;;;;;;8.48;59.54;100235.56;3599318;39;20060;-70
2021/04/11 05:01:51;;;;;;;55.28;34.72;;;;;;;9.37;57.87;100221.38;3599147;39;20322;-71
2021/04/11 05:04:25;;;;;;;59.88;34.03;;;;;;;9.94;56.49;100228.09;3598016;39;20068;-71
2021/04/11 05:06:56;;;;;;;57.38;33.55;;;;;;;9.89;56.58;100227.41;3588996;40;20058;-70
2021/04/11 05:09:31;;;;;;;60.53;33.35;;;;;;;9.79;57.06;100226.03;3591530;40;20036;-70
2021/04/11 05:12:05;;;;;;;56.63;32.60;;;;;;;10.04;56.78;100229.50;3593792;40;20068;-71
2021/04/11 05:14:36;;;;;;;57.63;30.38;;;;;;;10.51;55.69;100233.91;3596750;39;20100;-70
2021/04/11 05:17:07;;;;;;;49.88;31.35;;;;;;;10.87;54.71;100232.47;3591307;40;20036;-70
2021/04/11 05:19:37;;;;;;;55.88;31.63;;;;;;;10.84;54.64;100226.50;3598663;40;20062;-69
2021/04/11 05:22:13;;;;;;;58.40;31.33;;;;;;;10.91;54.62;100238.44;3598762;39;20177;-70
2021/04/11 05:24:44;;;;;;;55.90;32.25;;;;;;;10.94;54.26;100227.81;3598404;39;20032;-70
2021/04/11 05:27:16;;;;;;;;;;;;;;;11.22;54.18;100238.03;3597795;40;20036;-70
2021/04/11 05:29:52;;;;;;;53.17;30.20;;;;;;;11.18;54.02;100236.47;3596948;39;19955;-70
2021/04/11 05:32:19;;;;;;;49.97;28.25;;;;;;;11.27;53.88;100236.94;3590855;40;20039;-70
2021/04/11 05:34:45;;;;;;;51.88;30.13;;;;;;;11.42;53.25;100242.47;3594146;40;20424;-71
2021/04/11 05:37:26;;;;;;;53.88;30.90;;;;;;;11.72;52.50;100243.81;3598163;39;20380;-71
2021/04/11 05:39:59;;;;;;;49.97;31.57;;;;;;;12.25;51.33;100237.97;3589673;39;20040;-71
2021/04/11 05:42:35;;;;;;;47.45;30.20;;;;;;;12.97;49.97;100226.72;3587069;40;20037;-70
2021/04/11 05:45:10;;;;;;;49.25;30.30;;;;;;;13.89;48.04;100223.81;3588184;40;20140;-71
2021/04/11 05:47:55;;;;;;;50.10;30.20;;;;;;;14.39;46.90;100224.69;3588000;40;20065;-71
2021/04/11 05:50:27;;;;;;;52.35;28.73;;;;;;;14.85;45.88;100226.53;3585952;40;20069;-72
2021/04/11 05:53:05;;;;;;;46.20;27.95;;;;;;;15.42;44.72;100228.56;3587659;40;20048;-70
2021/04/11 05:55:35;;;;;;;47.67;28.38;;;;;;;16.01;43.44;100214.41;3588272;40;20060;-71
2021/04/11 05:58:08;;;;;;;39.75;26.45;;;;;;;16.00;43.11;100217.16;3588470;40;20076;-71
2021/04/11 06:00:42;;;;;;;43.80;25.88;;;;;;;15.99;43.03;100216.28;3588877;40;20143;-71
2021/04/11 06:03:14;;;;;;;44.03;28.23;;;;;;;16.26;42.41;100212.91;3596506;40;20162;-70
2021/04/11 06:05:44;;;;;;;41.97;26.25;;;;;;;16.64;41.28;100208.66;3593046;39;20413;-71
2021/04/11 06:08:19;;;;;;;41.30;25.13;;;;;;;16.71;41.24;100210.03;3594476;39;20032;-71
2021/04/11 06:10:54;;;;;;;40.20;23.48;;;;;;;16.49;41.21;100203.53;3594318;40;20029;-69
2021/04/11 06:13:30;;;;;;;39.80;23.58;;;;;;;16.48;41.13;100201.84;3595711;40;20046;-69
2021/04/11 06:16:03;;;;;;;40.70;23.15;;;;;;;17.00;39.84;100188.75;3594046;39;20028;-70
2021/04/11 06:18:30;;;;;;;38.28;22.35;;;;;;;17.81;38.34;100191.25;3596443;39;20043;-70
2021/04/11 06:21:01;;;;;;;34.55;20.73;;;;;;;18.10;37.36;100183.91;3597487;39;20060;-70
2021/04/11 06:23:30;;;;;;;;;;;;;;;18.15;38.64;100192.41;3597699;40;20032;-70
2021/04/11 06:26:04;;;;;;;29.55;17.98;;;;;;;18.16;37.60;100196.75;3594986;40;20283;-68
2021/04/11 06:28:44;;;;;;;34.00;19.05;;;;;;;18.74;36.31;100192.56;3593938;40;20318;-70
2021/04/11 06:31:18;;;;;;;26.08;17.45;;;;;;;19.53;34.65;100189.28;3594579;40;20313;-69
2021/04/11 06:33:48;;;;;;;29.75;17.17;;;;;;;20.29;32.86;100190.47;3592871;40;20037;-69
2021/04/11 06:36:18;;;;;;;25.95;17.35;;;;;;;21.58;30.50;100178.94;3594813;40;20060;-69
2021/04/11 06:38:51;;;;;;;26.58;16.60;;;;;;;22.28;29.74;100188.03;3594014;40;20036;-70
2021/04/11 06:41:50;;;;;;;25.42;18.13;;;;;;;23.20;28.96;100178.81;3590943;40;20065;-71
2021/04/11 06:44:55;;;;;;;29.77;19.77;;;;;;;24.88;26.74;100179.66;3595888;40;20272;-70
2021/04/11 06:48:01;;;;;;;32.55;19.75;;;;;;;26.74;24.84;100183.75;3592847;40;20035;-72
2021/04/11 06:50:43;;;;;;;32.00;21.42;;;;;;;28.20;22.70;100183.72;3597102;40;20032;-71
2021/04/11 06:53:40;;;;;;;35.70;22.45;;;;;;;28.73;22.26;100184.84;3593972;40;20412;-70
2021/04/11 06:56:18;;;;;;;31.60;20.65;;;;;;;29.33;20.87;100194.91;3594919;40;20080;-70
2021/04/11 06:58:49;;;;;;;29.15;20.25;;;;;;;30.00;20.30;100191.47;3596687;40;20055;-71
2021/04/11 07:01:54;;;;;;;32.05;20.15;;;;;;;30.85;19.37;100186.38;3594473;40;20028;-71
2021/04/11 07:05:05;;;;;;;30.52;19.80;;;;;;;32.40;18.49;100191.81;3596574;40;20068;-70
2021/04/11 07:08:14;;;;;;;28.83;19.35;;;;;;;33.13;17.36;100192.06;3589430;40;20044;-70
2021/04/11 07:11:28;;;;;;;27.27;20.42;;;;;;;33.90;16.40;100194.19;3591833;40;20264;-70
2021/04/11 07:14:59;;;;;;;24.55;17.98;;;;;;;34.55;16.26;100184.16;3591294;40;20066;-71
2021/04/11 07:18:16;;;;;;;24.67;17.80;;;;;;;35.17;15.60;100182.56;3590093;40;20029;-70
2021/04/11 07:21:08;;;;;;;22.65;17.40;;;;;;;36.18;14.38;100184.19;3571541;39;20044;-76
2021/04/11 07:24:09;;;;;;;26.52;17.70;;;;;;;36.63;13.85;100184.72;3591476;40;20044;-77
2021/04/11 07:26:44;;;;;;;26.38;16.83;;;;;;;36.19;13.76;100185.88;3592616;40;20116;-78
2021/04/11 07:29:20;;;;;;;23.33;16.23;;;;;;;36.71;13.13;100186.31;3591766;40;20037;-77
2021/04/11 07:32:02;;;;;;;22.45;16.27;;;;;;;36.36;13.27;100189.69;3594139;40;20040;-77
2021/04/11 07:34:58;;;;;;;20.20;15.73;;;;;;;36.93;12.78;100174.66;3595126;40;20036;-78
2021/04/11 07:37:43;;;;;;;23.80;17.02;;;;;;;37.74;12.28;100175.91;3595033;40;20032;-77
2021/04/11 07:40:21;;;;;;;18.85;15.18;;;;;;;39.15;11.59;100165.41;3590378;40;20313;-79
2021/04/11 07:43:21;;;;;;;20.05;14.10;;;;;;;39.89;10.85;100176.16;3591040;40;20081;-78
2021/04/11 07:46:38;;;;;;;22.10;14.55;;;;;;;39.81;10.55;100169.22;3591877;40;20070;-79
2021/04/11 07:49:16;;;;;;;17.95;13.38;;;;;;;40.10;10.62;100166.31;3572580;40;20132;-79
2021/04/11 07:51:58;;;;;;;17.52;12.50;;;;;;;39.34;10.66;100164.06;3592066;40;20109;-77
2021/04/11 07:54:45;;;;;;;17.85;12.68;;;;;;;39.08;10.96;100158.41;3590486;40;20080;-74
2021/04/11 07:57:38;;;;;;;21.90;13.45;;;;;;;39.86;10.13;100158.28;3595457;40;20418;-78
2021/04/11 08:00:41;;;;;;;16.20;11.52;;;;;;;39.47;10.25;100162.91;3594289;40;20068;-76
2021/04/11 08:03:19;;;;;;;20.20;12.13;;;;;;;39.81;9.62;100162.88;3583349;39;20076;-78
2021/04/11 08:06:05;;;;;;;19.33;11.40;;;;;;;40.30;9.77;100165.75;3594498;40;20052;-77
2021/04/11 08:08:55;;;;;;;19.52;11.52;;;;;;;41.44;9.04;100160.06;3593656;40;20033;-77
2021/04/11 08:11:51;;;;;;;17.80;11.10;;;;;;;42.49;8.30;100169.25;3593860;39;20037;-77
2021/04/11 08:14:32;;;;;;;14.93;11.38;;;;;;;41.55;9.13;100170.06;3590090;40;20083;-77
2021/04/11 08:17:05;;;;;;;20.15;12.77;;;;;;;41.89;8.62;100165.09;3594160;40;20035;-78
2021/04/11 08:20:12;;;;;;;16.38;11.40;;;;;;;41.96;8.58;100160.16;3597790;39;20040;-77
2021/04/11 08:23:00;;;;;;;16.10;11.27;;;;;;;42.08;8.96;100156.41;3594718;39;20055;-78
2021/04/11 08:25:33;;;;;;;17.90;13.50;;;;;;;42.23;8.48;100153.69;3594261;40;20076;-77
2021/04/11 08:28:22;;;;;;;14.77;11.15;;;;;;;42.76;7.98;100160.75;3592816;40;20274;-72
2021/04/11 08:30:56;;;;;;;18.95;12.23;;;;;;;41.71;8.76;100154.50;3594163;40;20040;-73
2021/04/11 08:33:39;;;;;;;17.63;13.10;;;;;;;40.96;8.54;100155.53;3596043;40;20481;-72
2021/04/11 08:36:46;;;;;;;11.93;9.38;;;;;;;41.46;8.39;100146.91;3592142;40;20092;-72
2021/04/11 08:39:47;;;;;;;17.50;12.82;;;;;;;40.76;9.03;100143.22;3594713;40;20039;-72
2021/04/11 08:42:25;;;;;;;13.18;10.35;;;;;;;40.28;8.97;100140.47;3593908;40;20397;-73
2021/04/11 08:45:06;;;;;;;13.02;8.13;;;;;;;40.29;8.38;100131.13;3591947;40;20035;-70
2021/04/11 08:47:46;;;;;;;11.15;8.23;;;;;;;40.03;8.51;100128.09;3595416;40;20046;-71
2021/04/11 08:50:16;;;;;;;;;;;;;;;40.11;8.96;100124.88;3595681;40;20122;-72
2021/04/11 08:52:45;;;;;;;14.38;9.13;;;;;;;40.31;8.55;100117.97;3589274;39;19940;-75
2021/04/11 08:55:24;;;;;;;15.45;10.65;;;;;;;40.36;8.88;100116.09;3592400;40;20036;-76
2021/04/11 08:58:07;;;;;;;11.50;8.13;;;;;;;39.40;8.75;100112.88;3594684;40;20039;-76
2021/04/11 09:00:42;;;;;;;12.98;8.48;;;;;;;39.84;8.92;100096.50;3594377;40;20024;-75
2021/04/11 09:03:40;;;;;;;10.38;7.57;;;;;;;40.80;8.24;100094.03;3594959;40;20043;-76
2021/04/11 09:06:14;;;;;;;10.75;6.97;;;;;;;41.18;7.97;100087.50;3569839;39;20053;-77
2021/04/11 09:08:58;;;;;;;10.05;7.28;;;;;;;41.88;7.56;100077.25;3574562;40;20383;-76
2021/04/11 09:11:32;;;;;;;11.90;7.53;;;;;;;40.98;7.35;100076.34;3574570;40;20026;-77
2021/04/11 09:14:13;;;;;;;11.07;7.22;;;;;;;40.90;7.51;100076.84;3573724;40;20048;-78
2021/04/11 09:16:51;;;;;;;9.55;6.93;;;;;;;40.31;7.82;100069.38;3574737;40;20076;-78
2021/04/11 09:19:26;;;;;;;10.95;5.85;;;;;;;39.01;7.87;100057.97;3572536;40;20290;-78
2021/04/11 09:22:08;;;;;;;8.93;6.25;;;;;;;38.39;8.14;100054.38;3571158;40;20041;-82
2021/04/11 09:24:38;;;;;;;8.00;5.53;;;;;;;38.32;8.48;100062.75;3575224;40;20221;-80
2021/04/11 09:27:42;;;;;;;12.50;7.20;;;;;;;37.83;8.68;100053.25;3575158;40;20334;-79
2021/04/11 09:30:25;;;;;;;10.63;6.75;;;;;;;38.23;8.48;100047.78;3573863;40;20041;-79
2021/04/11 09:33:10;;;;;;;7.13;5.53;;;;;;;38.34;8.54;100048.81;3572057;40;20390;-80
2021/04/11 09:35:43;;;;;;;7.72;5.88;;;;;;;37.49;8.61;100046.75;3575351;40;20045;-78
2021/04/11 09:38:26;;;;;;;7.63;4.75;;;;;;;37.62;8.47;100049.22;3576472;40;20081;-77
2021/04/11 09:41:09;;;;;;;9.30;4.68;;;;;;;36.05;9.26;100032.41;3572451;40;20040;-80
2021/04/11 09:43:54;;;;;;;5.90;4.00;;;;;;;35.05;9.79;100048.97;3575051;40;20049;-78
2021/04/11 09:46:41;;;;;;;4.68;3.65;;;;;;;34.33;9.84;100027.66;3575032;40;20022;-79
2021/04/11 09:49:39;;;;;;;7.65;3.38;;;;;;;34.04;10.19;100020.91;3576539;40;20045;-77
2021/04/11 09:52:40;;;;;;;7.53;3.80;;;;;;;32.68;10.99;100021.53;3576884;40;20389;-79
2021/04/11 09:55:15;;;;;;;8.10;4.20;;;;;;;30.37;13.06;100020.13;3563972;40;20045;-76
2021/04/11 09:58:33;;;;;;;4.38;3.17;;;;;;;28.74;14.31;100032.78;3575148;40;20049;-78
2021/04/11 10:01:10;;;;;;;4.97;3.17;;;;;;;27.25;15.05;100037.34;3573798;40;20025;-78
2021/04/11 10:03:47;;;;;;;5.72;3.03;;;;;;;26.13;15.78;100026.34;3575587;40;20040;-78
2021/04/11 10:06:28;;;;;;;5.88;3.17;;;;;;;25.72;16.65;100019.97;3574295;40;20036;-77
2021/04/11 10:09:31;;;;;;;6.32;3.78;;;;;;;25.30;17.53;100019.91;3576551;40;20095;-79
2021/04/11 10:12:09;;;;;;;8.57;3.80;;;;;;;25.19;18.13;100013.78;3564549;40;20044;-77
2021/04/11 10:14:50;;;;;;;5.60;3.60;;;;;;;24.68;19.01;100014.59;3576496;40;20419;-78
2021/04/11 10:17:25;;;;;;;;;;;;;;;24.48;18.79;100026.47;3575545;40;20426;-77
2021/04/11 10:19:59;;;;;;;5.97;3.13;;;;;;;23.80;19.71;100016.19;3575347;40;19938;-78
2021/04/11 10:22:40;;;;;;;4.25;3.05;;;;;;;23.10;20.04;100022.88;3575105;40;20034;-78
2021/04/11 10:25:16;;;;;;;5.75;3.17;;;;;;;22.77;20.76;100011.66;3573528;40;20407;-78
2021/04/11 10:27:49;;;;;;;11.40;3.63;;;;;;;22.87;21.11;100026.84;3575909;40;20456;-78
2021/04/11 10:30:18;;;;;;;7.28;3.15;;;;;;;22.63;21.66;100036.13;3572621;40;20044;-78
2021/04/11 10:32:50;;;;;;;7.30;3.90;;;;;;;22.52;22.17;100022.94;3574621;40;20368;-78
2021/04/11 10:35:24;;;;;;;8.30;3.92;;;;;;;22.64;21.94;100032.47;3571623;40;20052;-78
2021/04/11 10:37:54;;;;;;;7.53;3.40;;;;;;;22.38;22.42;100040.22;3573565;40;20095;-78
2021/04/11 10:40:47;;;;;;;8.07;4.00;;;;;;;22.01;23.21;100018.59;3574830;40;20045;-78
2021/04/11 10:43:30;;;;;;;6.68;3.70;;;;;;;21.86;23.07;100017.31;3559271;40;20048;-77
2021/04/11 10:46:02;;;;;;;7.45;3.70;;;;;;;21.64;23.36;100022.84;3574700;40;20037;-77
2021/04/11 10:48:51;;;;;;;5.82;3.50;;;;;;;21.47;23.94;100019.03;3578504;40;20151;-77
2021/04/11 10:51:37;;;;;;;5.43;3.25;;;;;;;21.23;24.00;100021.94;3577305;40;20378;-76
2021/04/11 10:54:30;;;;;;;5.22;3.50;;;;;;;21.09;24.10;100009.81;3576302;40;20074;-77
2021/04/11 10:57:16;;;;;;;7.88;3.67;;;;;;;21.11;24.57;99994.53;3568840;40;20037;-77
2021/04/11 11:00:08;;;;;;;7.15;3.17;;;;;;;21.28;24.42;99979.78;3573979;40;20122;-77
2021/04/11 11:03:16;;;;;;;6.00;3.53;;;;;;;21.38;24.44;99988.66;3569848;40;20206;-71
2021/04/11 11:06:07;;;;;;;5.00;3.42;;;;;;;21.32;24.61;100009.69;3573289;40;20048;-72
2021/04/11 11:08:47;;;;;;;5.90;3.90;;;;;;;21.22;25.06;99998.91;3575401;40;20049;-72
2021/04/11 11:11:39;;;;;;;6.25;3.85;;;;;;;21.14;25.33;99986.25;3575251;40;20037;-72
2021/04/11 11:14:36;;;;;;;5.38;3.08;;;;;;;21.13;25.45;99978.41;3575334;40;20049;-72
2021/04/11 11:17:16;;;;;;;7.40;3.75;;;;;;;20.99;25.51;99999.06;3572293;40;20029;-73
2021/04/11 11:20:01;;;;;;;5.57;3.20;;;;;;;20.97;26.00;99979.72;3572994;40;20398;-73
2021/04/11 11:22:44;;;;;;;5.90;3.45;;;;;;;21.05;25.72;99984.41;3575082;40;20078;-72
2021/04/11 11:25:23;;;;;;;6.35;3.67;;;;;;;21.05;25.85;99978.22;3575626;40;20029;-72
2021/04/11 11:28:21;;;;;;;5.75;3.53;;;;;;;21.04;26.15;99981.88;3576176;40;20396;-71
2021/04/11 11:31:08;;;;;;;5.97;3.60;;;;;;;21.26;25.60;99992.41;3573238;40;20420;-72
2021/04/11 11:33:48;;;;;;;5.72;3.25;;;;;;;21.33;24.41;99979.38;3575793;40;20341;-71
2021/04/11 11:36:26;;;;;;;4.43;3.10;;;;;;;21.33;24.00;99972.22;3575465;40;20040;-72
2021/04/11 11:39:04;;;;;;;4.90;3.22;;;;;;;21.50;23.45;99974.25;3575409;40;20126;-71
2021/04/11 11:41:47;;;;;;;5.00;3.05;;;;;;;21.69;23.24;99975.28;3575104;40;20033;-72
2021/04/11 11:44:20;;;;;;;4.95;3.00;;;;;;;21.69;22.57;99976.13;3574938;40;20321;-72
2021/04/11 11:46:53;;;;;;;4.60;2.90;;;;;;;21.65;22.60;99966.69;3575060;40;20051;-73
2021/04/11 11:49:23;;;;;;;5.65;3.33;;;;;;;21.78;21.98;99953.97;3576015;40;20041;-72
2021/04/11 11:52:00;;;;;;;6.57;3.10;;;;;;;21.84;22.75;99958.72;3574403;40;20102;-72
2021/04/11 11:54:32;;;;;;;6.10;3.40;;;;;;;21.84;22.19;99960.56;3573978;40;20041;-72
2021/04/11 11:57:10;;;;;;;6.10;3.15;;;;;;;21.81;22.16;99956.34;3571893;40;20095;-71
2021/04/11 11:59:41;;;;;;;5.40;3.10;;;;;;;21.83;22.76;99957.03;3574594;40;20308;-72
2021/04/11 12:02:18;;;;;;;4.82;2.90;;;;;;;21.91;21.89;99956.38;3573977;40;20077;-72
2021/04/11 12:04:49;;;;;;;5.47;3.10;;;;;;;21.84;21.36;99957.88;3573894;40;20346;-73